KQA370 HKJK-OMAA
Flight info
| Callsign | KQA370 |
|---|---|
| Flight time | 4h 35m |
| Altitude | 35000 |
| Route | WAV UP312 MAV B403 MUSBI UB403 BOMIX B403 RIGAM B400 DAXAM Y414 DEDSO R401 DOLFI P558 SODEX N563 NOBTO |
| Aircraft | B738/M-SDE2E3FGHIJ1RWXY/LB1 |
Departure
| Time | 2026-05-05 16:07 |
|---|---|
| Airport | Jomo Kenyatta International Airport (HKJK) |
Arrival
| Time | 2026-05-05 20:42 |
|---|---|
| Airport | Zayed International Airport (OMAA) |
| Time | Latitude | Longitude | Altitude | Speed | Heading |
|---|---|---|---|---|---|
| 2026-05-05 15:24 | -1.32863 | 36.92546 | 5329 ft | 0 kts | 193° |
| 2026-05-05 15:50 | -1.32862 | 36.92546 | 5329 ft | 2 kts | 193° |
| 2026-05-05 15:50 | -1.32846 | 36.92550 | 5334 ft | 2 kts | 194° |
| 2026-05-05 15:51 | -1.32830 | 36.92553 | 5331 ft | 2 kts | 194° |
| 2026-05-05 15:51 | -1.32814 | 36.92557 | 5332 ft | 2 kts | 194° |
| 2026-05-05 15:51 | -1.32798 | 36.92561 | 5331 ft | 2 kts | 204° |
| 2026-05-05 15:51 | -1.32785 | 36.92571 | 5332 ft | 2 kts | 239° |
| 2026-05-05 15:52 | -1.32779 | 36.92587 | 5334 ft | 2 kts | 263° |
| 2026-05-05 15:52 | -1.32779 | 36.92601 | 5333 ft | 1 kts | 283° |
| 2026-05-05 15:52 | -1.32780 | 36.92604 | 5334 ft | 0 kts | 288° |
| 2026-05-05 16:00 | -1.32773 | 36.92582 | 5329 ft | 8 kts | 287° |
| 2026-05-05 16:00 | -1.32763 | 36.92516 | 5333 ft | 11 kts | 274° |
| 2026-05-05 16:00 | -1.32770 | 36.92434 | 5332 ft | 12 kts | 257° |
| 2026-05-05 16:01 | -1.32801 | 36.92358 | 5330 ft | 12 kts | 239° |
| 2026-05-05 16:01 | -1.32846 | 36.92292 | 5331 ft | 11 kts | 248° |
| 2026-05-05 16:01 | -1.32818 | 36.92226 | 5329 ft | 11 kts | 322° |
| 2026-05-05 16:01 | -1.32784 | 36.92165 | 5329 ft | 11 kts | 256° |
| 2026-05-05 16:02 | -1.32824 | 36.92102 | 5330 ft | 11 kts | 234° |
| 2026-05-05 16:02 | -1.32836 | 36.92029 | 5330 ft | 11 kts | 276° |
| 2026-05-05 16:02 | -1.32825 | 36.91958 | 5331 ft | 10 kts | 279° |
| 2026-05-05 16:02 | -1.32814 | 36.91886 | 5332 ft | 11 kts | 274° |
| 2026-05-05 16:03 | -1.32840 | 36.91813 | 5336 ft | 11 kts | 239° |
| 2026-05-05 16:03 | -1.32866 | 36.91744 | 5336 ft | 8 kts | 276° |
| 2026-05-05 16:03 | -1.32839 | 36.91709 | 5340 ft | 0 kts | 322° |
| 2026-05-05 16:04 | -1.32833 | 36.91704 | 5337 ft | 4 kts | 322° |
| 2026-05-05 16:05 | -1.32795 | 36.91677 | 5340 ft | 9 kts | 324° |
| 2026-05-05 16:05 | -1.32736 | 36.91666 | 5339 ft | 9 kts | 29° |
| 2026-05-05 16:05 | -1.32718 | 36.91685 | 5337 ft | 0 kts | 53° |
| 2026-05-05 16:05 | -1.32717 | 36.91687 | 5337 ft | 3 kts | 53° |
| 2026-05-05 16:06 | -1.32581 | 36.91877 | 5331 ft | 67 kts | 53° |
| 2026-05-05 16:06 | -1.32185 | 36.92421 | 5320 ft | 125 kts | 54° |
| 2026-05-05 16:06 | -1.31573 | 36.93267 | 5306 ft | 174 kts | 54° |
| 2026-05-05 16:06 | -1.30802 | 36.94338 | 5549 ft | 197 kts | 55° |
| 2026-05-05 16:07 | -1.30020 | 36.95488 | 6151 ft | 202 kts | 65° |
| 2026-05-05 16:07 | -1.29544 | 36.96822 | 6763 ft | 206 kts | 80° |
| 2026-05-05 16:07 | -1.29396 | 36.98243 | 7307 ft | 205 kts | 88° |
| 2026-05-05 16:07 | -1.29322 | 36.99671 | 7764 ft | 208 kts | 88° |
| 2026-05-05 16:08 | -1.29240 | 37.01153 | 8050 ft | 220 kts | 88° |
| 2026-05-05 16:08 | -1.29161 | 37.02721 | 8320 ft | 233 kts | 88° |
| 2026-05-05 16:08 | -1.29073 | 37.04398 | 8517 ft | 250 kts | 87° |
| 2026-05-05 16:08 | -1.28925 | 37.06137 | 9037 ft | 252 kts | 85° |
| 2026-05-05 16:09 | -1.28719 | 37.07940 | 9329 ft | 270 kts | 84° |
| 2026-05-05 16:09 | -1.28497 | 37.09829 | 9718 ft | 282 kts | 83° |
| 2026-05-05 16:09 | -1.28257 | 37.11798 | 10219 ft | 291 kts | 83° |
| 2026-05-05 16:09 | -1.28009 | 37.13863 | 10434 ft | 310 kts | 80° |
| 2026-05-05 16:10 | -1.27201 | 37.15922 | 10562 ft | 330 kts | 53° |
| 2026-05-05 16:10 | -1.25609 | 37.17656 | 10730 ft | 348 kts | 45° |
| 2026-05-05 16:10 | -1.23827 | 37.19381 | 10944 ft | 363 kts | 43° |
| 2026-05-05 16:10 | -1.21981 | 37.21130 | 11422 ft | 367 kts | 43° |
| 2026-05-05 16:11 | -1.20128 | 37.22881 | 12063 ft | 367 kts | 43° |
| 2026-05-05 16:11 | -1.14498 | 37.28257 | 13600 ft | 377 kts | 42° |
| 2026-05-05 16:12 | -1.12599 | 37.30087 | 14097 ft | 380 kts | 41° |
| 2026-05-05 16:12 | -1.08785 | 37.33777 | 15035 ft | 383 kts | 43° |
| 2026-05-05 16:13 | -1.03013 | 37.39363 | 16416 ft | 389 kts | 43° |
| 2026-05-05 16:13 | -1.01068 | 37.41246 | 16864 ft | 391 kts | 43° |
| 2026-05-05 16:13 | -0.99102 | 37.43149 | 17239 ft | 395 kts | 43° |
| 2026-05-05 16:14 | -0.95132 | 37.46993 | 18051 ft | 400 kts | 44° |
| 2026-05-05 16:14 | -0.91121 | 37.50877 | 18826 ft | 404 kts | 44° |
| 2026-05-05 16:15 | -0.87028 | 37.54840 | 19357 ft | 411 kts | 44° |
| 2026-05-05 16:15 | -0.82902 | 37.58835 | 20009 ft | 416 kts | 44° |
| 2026-05-05 16:16 | -0.78733 | 37.62871 | 20670 ft | 419 kts | 44° |
| 2026-05-05 16:16 | -0.74511 | 37.66959 | 21247 ft | 424 kts | 44° |
| 2026-05-05 16:17 | -0.70281 | 37.71054 | 21837 ft | 428 kts | 44° |
| 2026-05-05 16:17 | -0.68144 | 37.73123 | 22163 ft | 428 kts | 44° |
| 2026-05-05 16:18 | -0.63847 | 37.77283 | 22763 ft | 431 kts | 45° |
| 2026-05-05 16:18 | -0.61683 | 37.79380 | 22904 ft | 437 kts | 45° |
| 2026-05-05 16:18 | -0.57306 | 37.83615 | 23413 ft | 440 kts | 45° |
| 2026-05-05 16:19 | -0.55097 | 37.85754 | 23641 ft | 442 kts | 45° |
| 2026-05-05 16:19 | -0.52884 | 37.87895 | 23873 ft | 443 kts | 45° |
| 2026-05-05 16:19 | -0.48432 | 37.92205 | 24251 ft | 447 kts | 45° |
| 2026-05-05 16:20 | -0.43988 | 37.96508 | 24675 ft | 449 kts | 44° |
| 2026-05-05 16:20 | -0.39488 | 38.00863 | 25048 ft | 452 kts | 44° |
| 2026-05-05 16:21 | -0.34968 | 38.05238 | 25441 ft | 454 kts | 45° |
| 2026-05-05 16:22 | -0.28137 | 38.11849 | 26031 ft | 457 kts | 44° |
| 2026-05-05 16:22 | -0.23545 | 38.16294 | 26367 ft | 461 kts | 44° |
| 2026-05-05 16:23 | -0.18927 | 38.20764 | 26687 ft | 463 kts | 44° |
| 2026-05-05 16:23 | -0.16610 | 38.23006 | 26881 ft | 464 kts | 44° |
| 2026-05-05 16:23 | -0.11963 | 38.27504 | 27241 ft | 466 kts | 44° |
| 2026-05-05 16:24 | -0.09656 | 38.29738 | 27353 ft | 468 kts | 44° |
| 2026-05-05 16:24 | -0.07287 | 38.32031 | 27521 ft | 469 kts | 44° |
| 2026-05-05 16:24 | -0.02618 | 38.36549 | 27856 ft | 471 kts | 44° |
| 2026-05-05 16:25 | -0.00262 | 38.38830 | 27995 ft | 472 kts | 44° |
| 2026-05-05 16:25 | 0.04467 | 38.43408 | 28267 ft | 474 kts | 44° |
| 2026-05-05 16:25 | 0.06840 | 38.45704 | 28423 ft | 475 kts | 44° |
| 2026-05-05 16:26 | 0.10831 | 38.49566 | 28702 ft | 476 kts | 44° |
| 2026-05-05 16:26 | 0.15547 | 38.54132 | 29099 ft | 475 kts | 44° |
| 2026-05-05 16:27 | 0.17919 | 38.56427 | 29298 ft | 475 kts | 44° |
| 2026-05-05 16:27 | 0.20297 | 38.58729 | 29479 ft | 475 kts | 44° |
| 2026-05-05 16:27 | 0.22669 | 38.61025 | 29714 ft | 475 kts | 44° |
| 2026-05-05 16:27 | 0.25041 | 38.63321 | 29893 ft | 475 kts | 44° |
| 2026-05-05 16:28 | 0.27413 | 38.65617 | 30093 ft | 474 kts | 44° |
| 2026-05-05 16:28 | 0.29785 | 38.67913 | 30255 ft | 474 kts | 43° |
| 2026-05-05 16:28 | 0.32148 | 38.70200 | 30467 ft | 473 kts | 44° |
| 2026-05-05 16:28 | 0.34501 | 38.72478 | 30735 ft | 470 kts | 43° |
| 2026-05-05 16:29 | 0.36844 | 38.74746 | 30955 ft | 469 kts | 44° |
| 2026-05-05 16:29 | 0.39180 | 38.77007 | 31199 ft | 467 kts | 44° |
| 2026-05-05 16:29 | 0.41516 | 38.79268 | 31372 ft | 467 kts | 43° |
| 2026-05-05 16:29 | 0.43837 | 38.81516 | 31662 ft | 464 kts | 44° |
| 2026-05-05 16:30 | 0.46126 | 38.83732 | 31830 ft | 464 kts | 43° |
| 2026-05-05 16:30 | 0.48440 | 38.85971 | 32109 ft | 462 kts | 44° |
| 2026-05-05 16:30 | 0.50747 | 38.88203 | 32324 ft | 460 kts | 43° |
| 2026-05-05 16:30 | 0.53041 | 38.90423 | 32601 ft | 458 kts | 44° |
| 2026-05-05 16:31 | 0.55332 | 38.92642 | 32787 ft | 458 kts | 43° |
| 2026-05-05 16:31 | 0.57618 | 38.94854 | 32942 ft | 459 kts | 43° |
| 2026-05-05 16:31 | 0.59912 | 38.97076 | 33153 ft | 458 kts | 44° |
| 2026-05-05 16:31 | 0.62199 | 38.99290 | 33320 ft | 458 kts | 43° |
| 2026-05-05 16:32 | 0.64490 | 39.01508 | 33601 ft | 456 kts | 43° |
| 2026-05-05 16:32 | 0.66768 | 39.03713 | 33772 ft | 456 kts | 43° |
| 2026-05-05 16:32 | 0.69048 | 39.05920 | 33938 ft | 456 kts | 44° |
| 2026-05-05 16:32 | 0.71326 | 39.08125 | 34103 ft | 456 kts | 44° |
| 2026-05-05 16:33 | 0.73601 | 39.10328 | 34342 ft | 454 kts | 44° |
| 2026-05-05 16:33 | 0.75842 | 39.12497 | 34430 ft | 455 kts | 43° |
| 2026-05-05 16:33 | 0.78113 | 39.14696 | 34616 ft | 454 kts | 44° |
| 2026-05-05 16:33 | 0.80416 | 39.16926 | 34731 ft | 453 kts | 43° |
| 2026-05-05 16:34 | 0.82632 | 39.19072 | 34832 ft | 448 kts | 44° |
| 2026-05-05 16:34 | 0.84866 | 39.21235 | 34865 ft | 446 kts | 43° |
| 2026-05-05 16:34 | 0.89346 | 39.25572 | 34879 ft | 450 kts | 44° |
| 2026-05-05 16:35 | 0.93870 | 39.29953 | 34879 ft | 454 kts | 44° |
| 2026-05-05 16:35 | 0.98428 | 39.34366 | 34878 ft | 457 kts | 44° |
| 2026-05-05 16:36 | 1.02976 | 39.38770 | 34875 ft | 458 kts | 44° |
| 2026-05-05 16:36 | 1.07546 | 39.43196 | 34874 ft | 455 kts | 44° |
| 2026-05-05 16:37 | 1.12076 | 39.47583 | 34868 ft | 452 kts | 44° |
| 2026-05-05 16:37 | 1.16572 | 39.51938 | 34869 ft | 449 kts | 44° |
| 2026-05-05 16:38 | 1.21069 | 39.56292 | 34877 ft | 451 kts | 44° |
| 2026-05-05 16:38 | 1.25600 | 39.60681 | 34881 ft | 456 kts | 44° |
| 2026-05-05 16:39 | 1.30175 | 39.65113 | 34888 ft | 460 kts | 44° |
| 2026-05-05 16:39 | 1.34755 | 39.69549 | 34887 ft | 463 kts | 44° |
| 2026-05-05 16:40 | 1.39364 | 39.74014 | 34874 ft | 459 kts | 44° |
| 2026-05-05 16:40 | 1.43920 | 39.78428 | 34877 ft | 453 kts | 44° |
| 2026-05-05 16:41 | 1.48427 | 39.82795 | 34873 ft | 451 kts | 43° |
| 2026-05-05 16:41 | 1.52953 | 39.87181 | 34895 ft | 455 kts | 43° |
| 2026-05-05 16:42 | 1.57523 | 39.91609 | 34895 ft | 459 kts | 43° |
| 2026-05-05 16:42 | 1.62126 | 39.96070 | 34898 ft | 462 kts | 43° |
| 2026-05-05 16:43 | 1.66754 | 40.00556 | 34894 ft | 465 kts | 43° |
| 2026-05-05 16:43 | 1.71396 | 40.05056 | 34882 ft | 462 kts | 43° |
| 2026-05-05 16:44 | 1.75991 | 40.09443 | 34883 ft | 455 kts | 40° |
| 2026-05-05 16:44 | 1.80900 | 40.13420 | 34904 ft | 454 kts | 37° |
| 2026-05-05 16:45 | 1.85898 | 40.17287 | 34902 ft | 454 kts | 37° |
| 2026-05-05 16:45 | 1.90864 | 40.21197 | 34908 ft | 455 kts | 38° |
| 2026-05-05 16:46 | 1.95826 | 40.25158 | 34908 ft | 457 kts | 38° |
| 2026-05-05 16:46 | 2.00792 | 40.29140 | 34913 ft | 458 kts | 38° |
| 2026-05-05 16:47 | 2.05783 | 40.33141 | 34918 ft | 460 kts | 38° |
| 2026-05-05 16:47 | 2.10752 | 40.37122 | 34917 ft | 462 kts | 38° |
| 2026-05-05 16:48 | 2.15771 | 40.41142 | 34909 ft | 462 kts | 38° |
| 2026-05-05 16:48 | 2.20797 | 40.45169 | 34918 ft | 463 kts | 38° |
| 2026-05-05 16:49 | 2.25821 | 40.49195 | 34913 ft | 462 kts | 38° |
| 2026-05-05 16:49 | 2.30837 | 40.53215 | 34910 ft | 461 kts | 38° |
| 2026-05-05 16:50 | 2.35808 | 40.57200 | 34920 ft | 460 kts | 38° |
| 2026-05-05 16:50 | 2.40792 | 40.61197 | 34914 ft | 458 kts | 38° |
| 2026-05-05 16:51 | 2.45730 | 40.65213 | 34915 ft | 457 kts | 38° |
| 2026-05-05 16:51 | 2.50652 | 40.69238 | 34917 ft | 455 kts | 38° |
| 2026-05-05 16:52 | 2.55554 | 40.73243 | 34921 ft | 454 kts | 38° |
| 2026-05-05 16:52 | 2.60450 | 40.77240 | 34920 ft | 454 kts | 38° |
| 2026-05-05 16:53 | 2.65312 | 40.81207 | 34926 ft | 454 kts | 38° |
| 2026-05-05 16:53 | 2.70205 | 40.85200 | 34924 ft | 454 kts | 38° |
| 2026-05-05 16:54 | 2.75133 | 40.89222 | 34925 ft | 455 kts | 38° |
| 2026-05-05 16:54 | 2.80004 | 40.93197 | 34909 ft | 456 kts | 38° |
| 2026-05-05 16:55 | 2.84923 | 40.97213 | 34923 ft | 457 kts | 38° |
| 2026-05-05 16:55 | 2.89853 | 41.01237 | 34929 ft | 458 kts | 38° |
| 2026-05-05 16:56 | 2.94802 | 41.05278 | 34928 ft | 460 kts | 38° |
| 2026-05-05 16:56 | 2.99766 | 41.09332 | 34926 ft | 461 kts | 38° |
| 2026-05-05 16:57 | 3.04741 | 41.13396 | 34922 ft | 461 kts | 38° |
| 2026-05-05 16:57 | 3.09688 | 41.17436 | 34924 ft | 462 kts | 38° |
| 2026-05-05 16:58 | 3.14666 | 41.21503 | 34927 ft | 461 kts | 38° |
| 2026-05-05 16:58 | 3.19635 | 41.25563 | 34929 ft | 461 kts | 38° |
| 2026-05-05 16:59 | 3.24598 | 41.29619 | 34930 ft | 460 kts | 38° |
| 2026-05-05 16:59 | 3.29553 | 41.33668 | 34930 ft | 459 kts | 38° |
| 2026-05-05 17:00 | 3.34495 | 41.37707 | 34934 ft | 458 kts | 38° |
| 2026-05-05 17:00 | 3.39393 | 41.41711 | 34938 ft | 457 kts | 38° |
| 2026-05-05 17:01 | 3.44312 | 41.45732 | 34929 ft | 456 kts | 38° |
| 2026-05-05 17:01 | 3.49232 | 41.49756 | 34927 ft | 456 kts | 38° |
| 2026-05-05 17:02 | 3.54152 | 41.53779 | 34927 ft | 456 kts | 38° |
| 2026-05-05 17:02 | 3.59056 | 41.57790 | 34928 ft | 455 kts | 38° |
| 2026-05-05 17:03 | 3.63967 | 41.61808 | 34922 ft | 456 kts | 38° |
| 2026-05-05 17:03 | 3.68846 | 41.65800 | 34919 ft | 456 kts | 38° |
| 2026-05-05 17:04 | 3.73757 | 41.69818 | 34918 ft | 456 kts | 38° |
| 2026-05-05 17:04 | 3.78678 | 41.73846 | 34909 ft | 456 kts | 38° |
| 2026-05-05 17:05 | 3.83591 | 41.77869 | 34909 ft | 456 kts | 38° |
| 2026-05-05 17:05 | 3.88507 | 41.81894 | 34911 ft | 456 kts | 38° |
| 2026-05-05 17:06 | 3.93421 | 41.85919 | 34910 ft | 456 kts | 39° |
| 2026-05-05 17:06 | 3.98014 | 41.90304 | 34914 ft | 457 kts | 45° |
| 2026-05-05 17:07 | 4.02370 | 41.94883 | 34903 ft | 457 kts | 45° |
| 2026-05-05 17:07 | 4.06755 | 41.99490 | 34905 ft | 457 kts | 45° |
| 2026-05-05 17:08 | 4.11167 | 42.04068 | 34906 ft | 456 kts | 45° |
| 2026-05-05 17:08 | 4.15591 | 42.08630 | 34907 ft | 456 kts | 45° |
| 2026-05-05 17:09 | 4.20016 | 42.13189 | 34907 ft | 456 kts | 45° |
| 2026-05-05 17:09 | 4.24436 | 42.17743 | 34905 ft | 456 kts | 45° |
| 2026-05-05 17:10 | 4.28850 | 42.22294 | 34908 ft | 455 kts | 45° |
| 2026-05-05 17:10 | 4.33266 | 42.26849 | 34910 ft | 455 kts | 45° |
| 2026-05-05 17:11 | 4.37674 | 42.31396 | 34912 ft | 455 kts | 45° |
| 2026-05-05 17:11 | 4.42090 | 42.35952 | 34913 ft | 455 kts | 45° |
| 2026-05-05 17:12 | 4.45753 | 42.39732 | 34913 ft | 455 kts | 45° |
| 2026-05-05 17:12 | 4.50159 | 42.44279 | 34916 ft | 455 kts | 45° |
| 2026-05-05 17:13 | 4.54574 | 42.48836 | 34920 ft | 455 kts | 45° |
| 2026-05-05 17:13 | 4.58979 | 42.53385 | 34919 ft | 455 kts | 45° |
| 2026-05-05 17:14 | 4.63392 | 42.57941 | 34924 ft | 455 kts | 45° |
| 2026-05-05 17:14 | 4.67800 | 42.62495 | 34924 ft | 455 kts | 45° |
| 2026-05-05 17:15 | 4.72187 | 42.67026 | 34926 ft | 455 kts | 45° |
| 2026-05-05 17:15 | 4.76596 | 42.71581 | 34928 ft | 455 kts | 45° |
| 2026-05-05 17:16 | 4.81009 | 42.76143 | 34929 ft | 455 kts | 45° |
| 2026-05-05 17:16 | 4.85417 | 42.80699 | 34929 ft | 455 kts | 45° |
| 2026-05-05 17:17 | 4.89828 | 42.85259 | 34932 ft | 455 kts | 45° |
| 2026-05-05 17:17 | 4.94236 | 42.89817 | 34934 ft | 455 kts | 45° |
| 2026-05-05 17:18 | 4.98657 | 42.94390 | 34935 ft | 455 kts | 45° |
| 2026-05-05 17:18 | 5.03064 | 42.98949 | 34936 ft | 455 kts | 45° |
| 2026-05-05 17:19 | 5.07451 | 43.03488 | 34935 ft | 455 kts | 45° |
| 2026-05-05 17:19 | 5.11871 | 43.08062 | 34933 ft | 455 kts | 45° |
| 2026-05-05 17:20 | 5.16283 | 43.12629 | 34937 ft | 455 kts | 45° |
| 2026-05-05 17:20 | 5.20693 | 43.17195 | 34937 ft | 455 kts | 45° |
| 2026-05-05 17:21 | 5.25100 | 43.21760 | 34939 ft | 455 kts | 45° |
| 2026-05-05 17:22 | 5.31693 | 43.28589 | 34938 ft | 456 kts | 45° |
| 2026-05-05 17:22 | 5.36108 | 43.33164 | 34933 ft | 456 kts | 45° |
| 2026-05-05 17:23 | 5.40521 | 43.37737 | 34931 ft | 456 kts | 45° |
| 2026-05-05 17:23 | 5.44933 | 43.42311 | 34932 ft | 456 kts | 45° |
| 2026-05-05 17:24 | 5.49348 | 43.46889 | 34934 ft | 456 kts | 45° |
| 2026-05-05 17:24 | 5.53759 | 43.51464 | 34925 ft | 456 kts | 45° |
| 2026-05-05 17:25 | 5.58179 | 43.56050 | 34934 ft | 456 kts | 45° |
| 2026-05-05 17:25 | 5.62596 | 43.60634 | 34920 ft | 457 kts | 45° |
| 2026-05-05 17:26 | 5.66990 | 43.65195 | 34921 ft | 457 kts | 45° |
| 2026-05-05 17:26 | 5.71414 | 43.69794 | 34914 ft | 458 kts | 45° |
| 2026-05-05 17:27 | 5.75835 | 43.74403 | 34916 ft | 458 kts | 45° |
| 2026-05-05 17:27 | 5.80256 | 43.79012 | 34916 ft | 458 kts | 45° |
| 2026-05-05 17:28 | 5.84681 | 43.83626 | 34909 ft | 458 kts | 45° |
| 2026-05-05 17:28 | 5.89095 | 43.88230 | 34918 ft | 458 kts | 45° |
| 2026-05-05 17:29 | 5.93519 | 43.92845 | 34912 ft | 458 kts | 45° |
| 2026-05-05 17:29 | 5.97936 | 43.97453 | 34916 ft | 457 kts | 45° |
| 2026-05-05 17:30 | 6.02317 | 44.02025 | 34922 ft | 457 kts | 45° |
| 2026-05-05 17:30 | 6.06732 | 44.06634 | 34919 ft | 457 kts | 45° |
| 2026-05-05 17:31 | 6.11138 | 44.11235 | 34921 ft | 457 kts | 45° |
| 2026-05-05 17:31 | 6.15540 | 44.15833 | 34923 ft | 456 kts | 45° |
| 2026-05-05 17:32 | 6.19943 | 44.20433 | 34921 ft | 456 kts | 45° |
| 2026-05-05 17:32 | 6.24339 | 44.25027 | 34918 ft | 456 kts | 46° |
| 2026-05-05 17:33 | 6.28713 | 44.29599 | 34922 ft | 456 kts | 46° |
| 2026-05-05 17:33 | 6.33112 | 44.34198 | 34924 ft | 456 kts | 46° |
| 2026-05-05 17:34 | 6.37514 | 44.38802 | 34923 ft | 457 kts | 46° |
| 2026-05-05 17:34 | 6.41915 | 44.43406 | 34920 ft | 457 kts | 46° |
| 2026-05-05 17:35 | 6.46323 | 44.48018 | 34923 ft | 457 kts | 46° |
| 2026-05-05 17:35 | 6.50734 | 44.52635 | 34924 ft | 458 kts | 46° |
| 2026-05-05 17:36 | 6.55152 | 44.57261 | 34924 ft | 458 kts | 46° |
| 2026-05-05 17:36 | 6.59535 | 44.61852 | 34923 ft | 458 kts | 46° |
| 2026-05-05 17:37 | 6.63952 | 44.66480 | 34928 ft | 458 kts | 46° |
| 2026-05-05 17:37 | 6.68374 | 44.71114 | 34928 ft | 459 kts | 46° |
| 2026-05-05 17:38 | 6.72797 | 44.75751 | 34932 ft | 459 kts | 46° |
| 2026-05-05 17:38 | 6.77209 | 44.80388 | 34932 ft | 459 kts | 47° |
| 2026-05-05 17:39 | 6.81614 | 44.85024 | 34930 ft | 459 kts | 47° |
| 2026-05-05 17:39 | 6.86025 | 44.89669 | 34929 ft | 458 kts | 47° |
| 2026-05-05 17:40 | 6.90435 | 44.94313 | 34936 ft | 458 kts | 47° |
| 2026-05-05 17:40 | 6.94839 | 44.98951 | 34936 ft | 458 kts | 47° |
| 2026-05-05 17:41 | 6.99246 | 45.03594 | 34927 ft | 458 kts | 47° |
| 2026-05-05 17:41 | 7.03619 | 45.08202 | 34931 ft | 458 kts | 47° |
| 2026-05-05 17:42 | 7.08027 | 45.12848 | 34925 ft | 458 kts | 47° |
| 2026-05-05 17:42 | 7.12427 | 45.17488 | 34923 ft | 458 kts | 47° |
| 2026-05-05 17:43 | 7.16827 | 45.22130 | 34919 ft | 458 kts | 47° |
| 2026-05-05 17:43 | 7.21229 | 45.26774 | 34919 ft | 458 kts | 47° |
| 2026-05-05 17:44 | 7.25641 | 45.31431 | 34919 ft | 459 kts | 47° |
| 2026-05-05 17:44 | 7.30044 | 45.36078 | 34918 ft | 459 kts | 47° |
| 2026-05-05 17:45 | 7.34431 | 45.40711 | 34911 ft | 459 kts | 47° |
| 2026-05-05 17:45 | 7.38853 | 45.45384 | 34912 ft | 460 kts | 47° |
| 2026-05-05 17:46 | 7.43267 | 45.50048 | 34907 ft | 460 kts | 47° |
| 2026-05-05 17:46 | 7.47688 | 45.54722 | 34908 ft | 460 kts | 47° |
| 2026-05-05 17:47 | 7.52103 | 45.59390 | 34908 ft | 460 kts | 47° |
| 2026-05-05 17:47 | 7.56520 | 45.64062 | 34906 ft | 460 kts | 47° |
| 2026-05-05 17:48 | 7.60934 | 45.68733 | 34903 ft | 460 kts | 47° |
| 2026-05-05 17:48 | 7.65351 | 45.73407 | 34904 ft | 460 kts | 47° |
| 2026-05-05 17:49 | 7.69763 | 45.78082 | 34902 ft | 460 kts | 47° |
| 2026-05-05 17:49 | 7.74135 | 45.82725 | 34907 ft | 460 kts | 47° |
| 2026-05-05 17:50 | 7.78536 | 45.87404 | 34907 ft | 460 kts | 47° |
| 2026-05-05 17:50 | 7.82944 | 45.92091 | 34906 ft | 460 kts | 47° |
| 2026-05-05 17:51 | 7.87343 | 45.96770 | 34907 ft | 460 kts | 47° |
| 2026-05-05 17:51 | 7.91743 | 46.01451 | 34907 ft | 459 kts | 47° |
| 2026-05-05 17:52 | 7.96137 | 46.06127 | 34908 ft | 459 kts | 47° |
| 2026-05-05 17:52 | 8.00526 | 46.10800 | 34908 ft | 459 kts | 47° |
| 2026-05-05 17:53 | 8.04916 | 46.15476 | 34910 ft | 458 kts | 47° |
| 2026-05-05 17:53 | 8.09311 | 46.20158 | 34905 ft | 458 kts | 47° |
| 2026-05-05 17:54 | 8.13694 | 46.24829 | 34911 ft | 458 kts | 47° |
| 2026-05-05 17:54 | 8.18049 | 46.29473 | 34911 ft | 458 kts | 47° |
| 2026-05-05 17:55 | 8.22430 | 46.34141 | 34907 ft | 458 kts | 47° |
| 2026-05-05 17:55 | 8.26852 | 46.38777 | 34909 ft | 458 kts | 46° |
| 2026-05-05 17:56 | 8.31295 | 46.43404 | 34910 ft | 458 kts | 46° |
| 2026-05-05 17:56 | 8.35739 | 46.48041 | 34909 ft | 458 kts | 46° |
| 2026-05-05 17:57 | 8.39424 | 46.51894 | 34912 ft | 458 kts | 46° |
| 2026-05-05 17:57 | 8.43843 | 46.56520 | 34912 ft | 458 kts | 46° |
| 2026-05-05 17:58 | 8.48278 | 46.61164 | 34910 ft | 457 kts | 46° |
| 2026-05-05 17:58 | 8.52666 | 46.65760 | 34909 ft | 457 kts | 46° |
| 2026-05-05 17:59 | 8.57085 | 46.70390 | 34909 ft | 457 kts | 46° |
| 2026-05-05 17:59 | 8.61500 | 46.75018 | 34902 ft | 457 kts | 46° |
| 2026-05-05 18:00 | 8.65910 | 46.79643 | 34900 ft | 457 kts | 46° |
| 2026-05-05 18:00 | 8.70320 | 46.84268 | 34902 ft | 457 kts | 46° |
| 2026-05-05 18:01 | 8.74732 | 46.88898 | 34897 ft | 457 kts | 46° |
| 2026-05-05 18:01 | 8.79146 | 46.93531 | 34892 ft | 457 kts | 46° |
| 2026-05-05 18:02 | 8.83553 | 46.98159 | 34887 ft | 457 kts | 46° |
| 2026-05-05 18:02 | 8.87964 | 47.02793 | 34876 ft | 457 kts | 46° |
| 2026-05-05 18:03 | 8.92381 | 47.07434 | 34876 ft | 457 kts | 46° |
| 2026-05-05 18:03 | 8.96794 | 47.12075 | 34878 ft | 458 kts | 46° |
| 2026-05-05 18:04 | 9.01183 | 47.16690 | 34870 ft | 458 kts | 46° |
| 2026-05-05 18:04 | 9.05612 | 47.21350 | 34870 ft | 459 kts | 46° |
| 2026-05-05 18:05 | 9.10039 | 47.26010 | 34873 ft | 459 kts | 46° |
| 2026-05-05 18:05 | 9.14471 | 47.30677 | 34878 ft | 459 kts | 46° |
| 2026-05-05 18:06 | 9.18905 | 47.35347 | 34876 ft | 459 kts | 46° |
| 2026-05-05 18:06 | 9.23383 | 47.39914 | 34882 ft | 459 kts | 44° |
| 2026-05-05 18:07 | 9.27937 | 47.44453 | 34886 ft | 459 kts | 44° |
| 2026-05-05 18:07 | 9.32487 | 47.48998 | 34890 ft | 460 kts | 45° |
| 2026-05-05 18:08 | 9.37031 | 47.53558 | 34890 ft | 460 kts | 45° |
| 2026-05-05 18:08 | 9.41563 | 47.58118 | 34904 ft | 460 kts | 45° |
| 2026-05-05 18:09 | 9.46103 | 47.62688 | 34906 ft | 460 kts | 45° |
| 2026-05-05 18:09 | 9.50640 | 47.67256 | 34912 ft | 460 kts | 45° |
| 2026-05-05 18:10 | 9.55176 | 47.71826 | 34918 ft | 460 kts | 45° |
| 2026-05-05 18:10 | 9.59681 | 47.76365 | 34920 ft | 459 kts | 45° |
| 2026-05-05 18:11 | 9.64212 | 47.80932 | 34923 ft | 459 kts | 45° |
| 2026-05-05 18:11 | 9.68739 | 47.85498 | 34934 ft | 459 kts | 45° |
| 2026-05-05 18:12 | 9.73270 | 47.90069 | 34934 ft | 459 kts | 45° |
| 2026-05-05 18:12 | 9.77795 | 47.94636 | 34939 ft | 459 kts | 45° |
| 2026-05-05 18:13 | 9.82323 | 47.99208 | 34939 ft | 459 kts | 45° |
| 2026-05-05 18:13 | 9.86851 | 48.03782 | 34936 ft | 459 kts | 45° |
| 2026-05-05 18:14 | 9.91354 | 48.08332 | 34943 ft | 459 kts | 45° |
| 2026-05-05 18:14 | 9.95885 | 48.12913 | 34943 ft | 460 kts | 45° |
| 2026-05-05 18:15 | 10.00427 | 48.17506 | 34943 ft | 460 kts | 45° |
| 2026-05-05 18:15 | 10.04965 | 48.22097 | 34948 ft | 460 kts | 45° |
| 2026-05-05 18:16 | 10.09499 | 48.26687 | 34949 ft | 461 kts | 45° |
| 2026-05-05 18:16 | 10.14039 | 48.31285 | 34945 ft | 461 kts | 45° |
| 2026-05-05 18:17 | 10.18577 | 48.35882 | 34949 ft | 461 kts | 45° |
| 2026-05-05 18:17 | 10.23106 | 48.40472 | 34949 ft | 460 kts | 45° |
| 2026-05-05 18:18 | 10.27640 | 48.45069 | 34952 ft | 460 kts | 45° |
| 2026-05-05 18:18 | 10.32133 | 48.49627 | 34942 ft | 460 kts | 45° |
| 2026-05-05 18:19 | 10.36663 | 48.54223 | 34943 ft | 459 kts | 45° |
| 2026-05-05 18:19 | 10.41179 | 48.58808 | 34939 ft | 459 kts | 45° |
| 2026-05-05 18:20 | 10.45694 | 48.63394 | 34939 ft | 458 kts | 45° |
| 2026-05-05 18:20 | 10.50178 | 48.67951 | 34934 ft | 458 kts | 45° |
| 2026-05-05 18:21 | 10.54690 | 48.72537 | 34929 ft | 458 kts | 45° |
| 2026-05-05 18:21 | 10.59192 | 48.77116 | 34931 ft | 458 kts | 45° |
| 2026-05-05 18:22 | 10.63698 | 48.81701 | 34934 ft | 458 kts | 45° |
| 2026-05-05 18:22 | 10.68206 | 48.86289 | 34927 ft | 458 kts | 45° |
| 2026-05-05 18:23 | 10.72721 | 48.90887 | 34922 ft | 458 kts | 45° |
| 2026-05-05 18:23 | 10.77202 | 48.95453 | 34914 ft | 459 kts | 45° |
| 2026-05-05 18:24 | 10.81718 | 49.00055 | 34915 ft | 459 kts | 45° |
| 2026-05-05 18:24 | 10.86227 | 49.04654 | 34909 ft | 459 kts | 45° |
| 2026-05-05 18:25 | 10.90738 | 49.09256 | 34896 ft | 459 kts | 45° |
| 2026-05-05 18:25 | 10.95249 | 49.13860 | 34899 ft | 460 kts | 45° |
| 2026-05-05 18:26 | 10.99774 | 49.18481 | 34894 ft | 460 kts | 45° |
| 2026-05-05 18:26 | 11.04289 | 49.23094 | 34895 ft | 460 kts | 45° |
| 2026-05-05 18:27 | 11.08812 | 49.27716 | 34900 ft | 461 kts | 45° |
| 2026-05-05 18:27 | 11.13310 | 49.32316 | 34893 ft | 461 kts | 45° |
| 2026-05-05 18:28 | 11.20104 | 49.39269 | 34897 ft | 461 kts | 45° |
| 2026-05-05 18:28 | 11.24633 | 49.43905 | 34891 ft | 461 kts | 45° |
| 2026-05-05 18:29 | 11.29158 | 49.48541 | 34889 ft | 461 kts | 45° |
| 2026-05-05 18:29 | 11.33644 | 49.53139 | 34902 ft | 460 kts | 45° |
| 2026-05-05 18:30 | 11.38160 | 49.57769 | 34877 ft | 460 kts | 45° |
| 2026-05-05 18:30 | 11.42573 | 49.62477 | 34888 ft | 459 kts | 48° |
| 2026-05-05 18:31 | 11.46818 | 49.67323 | 34881 ft | 458 kts | 49° |
| 2026-05-05 18:31 | 11.51060 | 49.72179 | 34863 ft | 458 kts | 48° |
| 2026-05-05 18:32 | 11.55316 | 49.77007 | 34860 ft | 458 kts | 48° |
| 2026-05-05 18:32 | 11.59589 | 49.81834 | 34862 ft | 457 kts | 48° |
| 2026-05-05 18:33 | 11.63820 | 49.86611 | 34863 ft | 457 kts | 48° |
| 2026-05-05 18:33 | 11.68088 | 49.91434 | 34862 ft | 457 kts | 48° |
| 2026-05-05 18:34 | 11.72352 | 49.96255 | 34862 ft | 458 kts | 48° |
| 2026-05-05 18:34 | 11.76619 | 50.01083 | 34864 ft | 458 kts | 48° |
| 2026-05-05 18:35 | 11.80890 | 50.05918 | 34856 ft | 459 kts | 48° |
| 2026-05-05 18:35 | 11.85165 | 50.10760 | 34855 ft | 459 kts | 48° |
| 2026-05-05 18:36 | 11.89447 | 50.15613 | 34858 ft | 459 kts | 48° |
| 2026-05-05 18:36 | 11.93701 | 50.20435 | 34850 ft | 460 kts | 48° |
| 2026-05-05 18:37 | 11.97986 | 50.25295 | 34846 ft | 460 kts | 48° |
| 2026-05-05 18:37 | 12.02270 | 50.30158 | 34855 ft | 460 kts | 48° |
| 2026-05-05 18:38 | 12.06552 | 50.35021 | 34849 ft | 460 kts | 48° |
| 2026-05-05 18:38 | 12.10842 | 50.39895 | 34854 ft | 461 kts | 48° |
| 2026-05-05 18:39 | 12.15127 | 50.44767 | 34851 ft | 461 kts | 48° |
| 2026-05-05 18:39 | 12.19452 | 50.49556 | 34852 ft | 461 kts | 46° |
| 2026-05-05 18:40 | 12.23976 | 50.54196 | 34854 ft | 461 kts | 45° |
| 2026-05-05 18:40 | 12.28512 | 50.58829 | 34851 ft | 460 kts | 45° |
| 2026-05-05 18:41 | 12.33018 | 50.63485 | 34849 ft | 460 kts | 46° |
| 2026-05-05 18:41 | 12.37508 | 50.68151 | 34844 ft | 459 kts | 46° |
| 2026-05-05 18:42 | 12.41986 | 50.72810 | 34848 ft | 459 kts | 46° |
| 2026-05-05 18:42 | 12.46430 | 50.77433 | 34848 ft | 459 kts | 46° |
| 2026-05-05 18:43 | 12.50901 | 50.82087 | 34847 ft | 458 kts | 46° |
| 2026-05-05 18:43 | 12.55371 | 50.86742 | 34846 ft | 458 kts | 46° |
| 2026-05-05 18:44 | 12.59837 | 50.91397 | 34849 ft | 458 kts | 46° |
| 2026-05-05 18:44 | 12.63552 | 50.95268 | 34848 ft | 458 kts | 46° |
| 2026-05-05 18:45 | 12.68023 | 50.99929 | 34847 ft | 458 kts | 46° |
| 2026-05-05 18:45 | 12.72493 | 51.04591 | 34852 ft | 458 kts | 46° |
| 2026-05-05 18:46 | 12.76956 | 51.09251 | 34843 ft | 458 kts | 46° |
| 2026-05-05 18:46 | 12.81423 | 51.13917 | 34849 ft | 458 kts | 46° |
| 2026-05-05 18:47 | 12.85882 | 51.18578 | 34838 ft | 458 kts | 46° |
| 2026-05-05 18:47 | 12.90353 | 51.23253 | 34842 ft | 458 kts | 46° |
| 2026-05-05 18:48 | 12.94813 | 51.27919 | 34835 ft | 458 kts | 46° |
| 2026-05-05 18:48 | 12.99271 | 51.32586 | 34847 ft | 458 kts | 46° |
| 2026-05-05 18:49 | 13.03724 | 51.37251 | 34842 ft | 457 kts | 46° |
| 2026-05-05 18:49 | 13.08171 | 51.41912 | 34836 ft | 457 kts | 46° |
| 2026-05-05 18:50 | 13.12624 | 51.46583 | 34843 ft | 457 kts | 46° |
| 2026-05-05 18:50 | 13.17068 | 51.51245 | 34845 ft | 457 kts | 46° |
| 2026-05-05 18:51 | 13.21515 | 51.55911 | 34836 ft | 457 kts | 46° |
| 2026-05-05 18:51 | 13.25935 | 51.60553 | 34841 ft | 457 kts | 46° |
| 2026-05-05 18:52 | 13.30384 | 51.65230 | 34839 ft | 457 kts | 46° |
| 2026-05-05 18:52 | 13.34829 | 51.69906 | 34833 ft | 457 kts | 46° |
| 2026-05-05 18:53 | 13.39275 | 51.74581 | 34835 ft | 457 kts | 47° |
| 2026-05-05 18:53 | 13.43717 | 51.79258 | 34841 ft | 457 kts | 46° |
| 2026-05-05 18:54 | 13.48163 | 51.83944 | 34842 ft | 458 kts | 47° |
| 2026-05-05 18:54 | 13.52603 | 51.88625 | 34845 ft | 458 kts | 46° |
| 2026-05-05 18:55 | 13.57036 | 51.93281 | 34840 ft | 458 kts | 46° |
| 2026-05-05 18:55 | 13.61513 | 51.97924 | 34838 ft | 457 kts | 46° |
| 2026-05-05 18:56 | 13.65996 | 52.02566 | 34846 ft | 456 kts | 46° |
| 2026-05-05 18:56 | 13.70458 | 52.07197 | 34840 ft | 455 kts | 46° |
| 2026-05-05 18:57 | 13.74915 | 52.11834 | 34841 ft | 455 kts | 46° |
| 2026-05-05 18:57 | 13.79338 | 52.16436 | 34839 ft | 455 kts | 46° |
| 2026-05-05 18:58 | 13.83791 | 52.21071 | 34845 ft | 455 kts | 46° |
| 2026-05-05 18:58 | 13.88239 | 52.25706 | 34845 ft | 455 kts | 46° |
| 2026-05-05 18:59 | 13.92694 | 52.30350 | 34839 ft | 455 kts | 46° |
| 2026-05-05 18:59 | 13.97151 | 52.34999 | 34843 ft | 456 kts | 46° |
| 2026-05-05 19:00 | 14.01583 | 52.39623 | 34847 ft | 456 kts | 46° |
| 2026-05-05 19:00 | 14.06036 | 52.44276 | 34848 ft | 456 kts | 46° |
| 2026-05-05 19:01 | 14.10496 | 52.48935 | 34843 ft | 456 kts | 46° |
| 2026-05-05 19:01 | 14.14948 | 52.53590 | 34842 ft | 456 kts | 46° |
| 2026-05-05 19:02 | 14.19401 | 52.58249 | 34840 ft | 456 kts | 46° |
| 2026-05-05 19:02 | 14.23852 | 52.62908 | 34839 ft | 456 kts | 46° |
| 2026-05-05 19:03 | 14.28299 | 52.67565 | 34836 ft | 456 kts | 46° |
| 2026-05-05 19:03 | 14.32743 | 52.72223 | 34843 ft | 455 kts | 46° |
| 2026-05-05 19:04 | 14.37183 | 52.76880 | 34845 ft | 455 kts | 46° |
| 2026-05-05 19:04 | 14.41620 | 52.81536 | 34840 ft | 455 kts | 46° |
| 2026-05-05 19:05 | 14.46053 | 52.86190 | 34833 ft | 455 kts | 46° |
| 2026-05-05 19:05 | 14.50482 | 52.90843 | 34835 ft | 455 kts | 46° |
| 2026-05-05 19:06 | 14.54894 | 52.95481 | 34842 ft | 455 kts | 46° |
| 2026-05-05 19:06 | 14.59325 | 53.00143 | 34840 ft | 455 kts | 46° |
| 2026-05-05 19:07 | 14.63765 | 53.04816 | 34838 ft | 455 kts | 46° |
| 2026-05-05 19:07 | 14.68655 | 53.08968 | 34836 ft | 456 kts | 32° |
| 2026-05-05 19:08 | 14.74078 | 53.12370 | 34838 ft | 456 kts | 31° |
| 2026-05-05 19:08 | 14.79520 | 53.15759 | 34844 ft | 457 kts | 32° |
| 2026-05-05 19:09 | 14.84949 | 53.19192 | 34837 ft | 457 kts | 32° |
| 2026-05-05 19:09 | 14.90365 | 53.22645 | 34843 ft | 457 kts | 32° |
| 2026-05-05 19:10 | 14.95778 | 53.26104 | 34844 ft | 457 kts | 32° |
| 2026-05-05 19:10 | 15.01165 | 53.29547 | 34844 ft | 457 kts | 32° |
| 2026-05-05 19:11 | 15.06578 | 53.33007 | 34843 ft | 457 kts | 32° |
| 2026-05-05 19:11 | 15.11999 | 53.36474 | 34841 ft | 457 kts | 32° |
| 2026-05-05 19:12 | 15.17412 | 53.39938 | 34837 ft | 458 kts | 32° |
| 2026-05-05 19:12 | 15.22830 | 53.43408 | 34839 ft | 458 kts | 32° |
| 2026-05-05 19:13 | 15.28244 | 53.46877 | 34842 ft | 458 kts | 32° |
| 2026-05-05 19:13 | 15.33659 | 53.50349 | 34843 ft | 457 kts | 32° |
| 2026-05-05 19:14 | 15.39077 | 53.53826 | 34842 ft | 457 kts | 32° |
| 2026-05-05 19:14 | 15.44452 | 53.57281 | 34840 ft | 457 kts | 32° |
| 2026-05-05 19:15 | 15.49810 | 53.60831 | 34845 ft | 457 kts | 33° |
| 2026-05-05 19:15 | 15.55151 | 53.64411 | 34853 ft | 457 kts | 33° |
| 2026-05-05 19:16 | 15.60500 | 53.67988 | 34843 ft | 457 kts | 33° |
| 2026-05-05 19:16 | 15.65848 | 53.71557 | 34845 ft | 457 kts | 33° |
| 2026-05-05 19:17 | 15.71208 | 53.75134 | 34846 ft | 457 kts | 33° |
| 2026-05-05 19:17 | 15.76525 | 53.78686 | 34846 ft | 457 kts | 33° |
| 2026-05-05 19:18 | 15.81880 | 53.82266 | 34842 ft | 457 kts | 33° |
| 2026-05-05 19:18 | 15.87232 | 53.85845 | 34842 ft | 458 kts | 33° |
| 2026-05-05 19:19 | 15.92591 | 53.89401 | 34840 ft | 458 kts | 33° |
| 2026-05-05 19:19 | 15.97983 | 53.92949 | 34843 ft | 458 kts | 32° |
| 2026-05-05 19:20 | 16.03365 | 53.96493 | 34838 ft | 458 kts | 33° |
| 2026-05-05 19:20 | 16.08754 | 54.00051 | 34835 ft | 458 kts | 32° |
| 2026-05-05 19:21 | 16.14139 | 54.03610 | 34840 ft | 458 kts | 32° |
| 2026-05-05 19:21 | 16.19487 | 54.07147 | 34838 ft | 458 kts | 32° |
| 2026-05-05 19:22 | 16.24872 | 54.10711 | 34838 ft | 458 kts | 33° |
| 2026-05-05 19:22 | 16.30260 | 54.14280 | 34829 ft | 459 kts | 32° |
| 2026-05-05 19:23 | 16.35651 | 54.17853 | 34834 ft | 459 kts | 33° |
| 2026-05-05 19:23 | 16.41037 | 54.21424 | 34822 ft | 459 kts | 33° |
| 2026-05-05 19:24 | 16.46429 | 54.25003 | 34823 ft | 460 kts | 33° |
| 2026-05-05 19:24 | 16.51826 | 54.28587 | 34823 ft | 460 kts | 33° |
| 2026-05-05 19:25 | 16.57222 | 54.32172 | 34816 ft | 460 kts | 33° |
| 2026-05-05 19:25 | 16.62579 | 54.35734 | 34813 ft | 461 kts | 32° |
| 2026-05-05 19:26 | 16.67995 | 54.39339 | 34814 ft | 461 kts | 33° |
| 2026-05-05 19:26 | 16.73401 | 54.42939 | 34811 ft | 461 kts | 33° |
| 2026-05-05 19:27 | 16.78815 | 54.46547 | 34819 ft | 462 kts | 32° |
| 2026-05-05 19:27 | 16.84231 | 54.50159 | 34821 ft | 462 kts | 33° |
| 2026-05-05 19:28 | 16.89649 | 54.53773 | 34827 ft | 462 kts | 33° |
| 2026-05-05 19:28 | 16.95077 | 54.57394 | 34833 ft | 462 kts | 32° |
| 2026-05-05 19:29 | 17.00466 | 54.60992 | 34842 ft | 463 kts | 32° |
| 2026-05-05 19:29 | 17.05899 | 54.64621 | 34844 ft | 463 kts | 32° |
| 2026-05-05 19:30 | 17.11325 | 54.68250 | 34851 ft | 463 kts | 32° |
| 2026-05-05 19:30 | 17.15848 | 54.71277 | 34851 ft | 463 kts | 32° |
| 2026-05-05 19:31 | 17.21277 | 54.74913 | 34850 ft | 463 kts | 32° |
| 2026-05-05 19:31 | 17.26709 | 54.78553 | 34851 ft | 464 kts | 33° |
| 2026-05-05 19:32 | 17.32015 | 54.82399 | 34852 ft | 464 kts | 36° |
| 2026-05-05 19:32 | 17.37238 | 54.86387 | 34850 ft | 464 kts | 36° |
| 2026-05-05 19:33 | 17.42469 | 54.90367 | 34850 ft | 464 kts | 36° |
| 2026-05-05 19:33 | 17.47680 | 54.94298 | 34837 ft | 464 kts | 36° |
| 2026-05-05 19:34 | 17.52929 | 54.98250 | 34840 ft | 464 kts | 36° |
| 2026-05-05 19:35 | 17.60801 | 55.04184 | 34821 ft | 465 kts | 36° |
| 2026-05-05 19:35 | 17.66050 | 55.08145 | 34824 ft | 465 kts | 36° |
| 2026-05-05 19:36 | 17.71272 | 55.12090 | 34823 ft | 465 kts | 36° |
| 2026-05-05 19:36 | 17.76529 | 55.16063 | 34818 ft | 466 kts | 36° |
| 2026-05-05 19:37 | 17.81792 | 55.20042 | 34822 ft | 466 kts | 36° |
| 2026-05-05 19:37 | 17.87062 | 55.24032 | 34813 ft | 467 kts | 36° |
| 2026-05-05 19:38 | 17.92337 | 55.28029 | 34817 ft | 467 kts | 36° |
| 2026-05-05 19:38 | 17.97575 | 55.32002 | 34813 ft | 467 kts | 36° |
| 2026-05-05 19:39 | 18.02842 | 55.35999 | 34811 ft | 467 kts | 36° |
| 2026-05-05 19:39 | 18.08122 | 55.40009 | 34813 ft | 467 kts | 36° |
| 2026-05-05 19:40 | 18.13505 | 55.43837 | 34811 ft | 466 kts | 32° |
| 2026-05-05 19:40 | 18.18946 | 55.47473 | 34810 ft | 466 kts | 32° |
| 2026-05-05 19:41 | 18.24396 | 55.51166 | 34816 ft | 466 kts | 33° |
| 2026-05-05 19:41 | 18.29834 | 55.54896 | 34813 ft | 466 kts | 33° |
| 2026-05-05 19:42 | 18.35262 | 55.58620 | 34811 ft | 465 kts | 33° |
| 2026-05-05 19:42 | 18.40680 | 55.62336 | 34810 ft | 465 kts | 33° |
| 2026-05-05 19:43 | 18.46096 | 55.66054 | 34811 ft | 464 kts | 33° |
| 2026-05-05 19:43 | 18.51509 | 55.69774 | 34807 ft | 464 kts | 33° |
| 2026-05-05 19:44 | 18.56881 | 55.73469 | 34809 ft | 464 kts | 33° |
| 2026-05-05 19:44 | 18.62293 | 55.77195 | 34809 ft | 464 kts | 33° |
| 2026-05-05 19:45 | 18.67693 | 55.80914 | 34814 ft | 464 kts | 33° |
| 2026-05-05 19:45 | 18.73098 | 55.84641 | 34809 ft | 464 kts | 33° |
| 2026-05-05 19:46 | 18.78493 | 55.88364 | 34810 ft | 464 kts | 33° |
| 2026-05-05 19:46 | 18.83900 | 55.92097 | 34805 ft | 464 kts | 33° |
| 2026-05-05 19:47 | 18.89298 | 55.95829 | 34806 ft | 464 kts | 33° |
| 2026-05-05 19:47 | 18.94664 | 55.99534 | 34802 ft | 464 kts | 31° |
| 2026-05-05 19:48 | 19.00547 | 56.02244 | 34796 ft | 463 kts | 14° |
| 2026-05-05 19:48 | 19.06805 | 56.03872 | 34798 ft | 463 kts | 13° |
| 2026-05-05 19:49 | 19.13074 | 56.05476 | 34802 ft | 464 kts | 13° |
| 2026-05-05 19:49 | 19.19349 | 56.07129 | 34798 ft | 464 kts | 14° |
| 2026-05-05 19:50 | 19.25619 | 56.08810 | 34795 ft | 465 kts | 14° |
| 2026-05-05 19:50 | 19.31894 | 56.10499 | 34796 ft | 466 kts | 13° |
| 2026-05-05 19:51 | 19.38178 | 56.12190 | 34797 ft | 466 kts | 13° |
| 2026-05-05 19:51 | 19.44475 | 56.13883 | 34792 ft | 466 kts | 13° |
| 2026-05-05 19:52 | 19.50728 | 56.15566 | 34791 ft | 467 kts | 13° |
| 2026-05-05 19:52 | 19.57017 | 56.17262 | 34790 ft | 467 kts | 13° |
| 2026-05-05 19:53 | 19.63312 | 56.18959 | 34789 ft | 466 kts | 13° |
| 2026-05-05 19:53 | 19.69603 | 56.20656 | 34789 ft | 466 kts | 13° |
| 2026-05-05 19:54 | 19.75899 | 56.22357 | 34788 ft | 466 kts | 13° |
| 2026-05-05 19:54 | 19.82175 | 56.24054 | 34792 ft | 465 kts | 13° |
| 2026-05-05 19:55 | 19.88457 | 56.25754 | 34788 ft | 465 kts | 13° |
| 2026-05-05 19:55 | 19.94697 | 56.27443 | 34787 ft | 465 kts | 13° |
| 2026-05-05 19:56 | 20.01091 | 56.28238 | 34794 ft | 462 kts | 359° |
| 2026-05-05 19:56 | 20.07523 | 56.28184 | 34787 ft | 462 kts | 358° |
| 2026-05-05 19:57 | 20.13958 | 56.28132 | 34789 ft | 463 kts | 358° |
| 2026-05-05 19:57 | 20.20397 | 56.28130 | 34787 ft | 463 kts | 359° |
| 2026-05-05 19:58 | 20.26803 | 56.28148 | 34786 ft | 463 kts | 359° |
| 2026-05-05 19:58 | 20.33256 | 56.28167 | 34784 ft | 463 kts | 359° |
| 2026-05-05 19:59 | 20.39713 | 56.28183 | 34785 ft | 463 kts | 359° |
| 2026-05-05 19:59 | 20.46160 | 56.28199 | 34786 ft | 464 kts | 359° |
| 2026-05-05 20:00 | 20.52623 | 56.28215 | 34785 ft | 464 kts | 358° |
| 2026-05-05 20:00 | 20.59010 | 56.27902 | 34796 ft | 462 kts | 351° |
| 2026-05-05 20:01 | 20.65375 | 56.26934 | 34790 ft | 462 kts | 350° |
| 2026-05-05 20:01 | 20.71730 | 56.25921 | 34789 ft | 462 kts | 350° |
| 2026-05-05 20:02 | 20.78104 | 56.24965 | 34783 ft | 462 kts | 350° |
| 2026-05-05 20:02 | 20.84475 | 56.24040 | 34783 ft | 462 kts | 350° |
| 2026-05-05 20:03 | 20.90848 | 56.23119 | 34782 ft | 462 kts | 350° |
| 2026-05-05 20:03 | 20.97222 | 56.22195 | 34784 ft | 462 kts | 350° |
| 2026-05-05 20:04 | 21.03589 | 56.21269 | 34776 ft | 461 kts | 350° |
| 2026-05-05 20:04 | 21.09902 | 56.20351 | 34782 ft | 461 kts | 350° |
| 2026-05-05 20:05 | 21.16259 | 56.19425 | 34780 ft | 460 kts | 350° |
| 2026-05-05 20:05 | 21.22617 | 56.18498 | 34785 ft | 460 kts | 350° |
| 2026-05-05 20:06 | 21.28969 | 56.17571 | 34780 ft | 460 kts | 349° |
| 2026-05-05 20:06 | 21.35311 | 56.16642 | 34781 ft | 460 kts | 349° |
| 2026-05-05 20:07 | 21.41611 | 56.15718 | 34783 ft | 460 kts | 349° |
| 2026-05-05 20:07 | 21.47953 | 56.14786 | 34784 ft | 459 kts | 349° |
| 2026-05-05 20:08 | 21.54289 | 56.13855 | 34781 ft | 460 kts | 349° |
| 2026-05-05 20:08 | 21.60630 | 56.12922 | 34781 ft | 460 kts | 349° |
| 2026-05-05 20:09 | 21.66966 | 56.11989 | 34785 ft | 460 kts | 349° |
| 2026-05-05 20:09 | 21.73314 | 56.11054 | 34789 ft | 460 kts | 349° |
| 2026-05-05 20:10 | 21.79667 | 56.10117 | 34787 ft | 460 kts | 349° |
| 2026-05-05 20:10 | 21.85977 | 56.09185 | 34784 ft | 460 kts | 349° |
| 2026-05-05 20:11 | 21.92331 | 56.08246 | 34783 ft | 460 kts | 349° |
| 2026-05-05 20:11 | 21.98685 | 56.07306 | 34780 ft | 460 kts | 349° |
| 2026-05-05 20:12 | 22.05033 | 56.06367 | 34786 ft | 460 kts | 349° |
| 2026-05-05 20:12 | 22.11384 | 56.05427 | 34786 ft | 460 kts | 349° |
| 2026-05-05 20:13 | 22.17726 | 56.04489 | 34788 ft | 460 kts | 349° |
| 2026-05-05 20:13 | 22.24073 | 56.03548 | 34786 ft | 460 kts | 349° |
| 2026-05-05 20:14 | 22.30417 | 56.02606 | 34787 ft | 460 kts | 349° |
| 2026-05-05 20:14 | 22.36760 | 56.01664 | 34791 ft | 460 kts | 349° |
| 2026-05-05 20:15 | 22.43110 | 56.00724 | 34794 ft | 460 kts | 349° |
| 2026-05-05 20:15 | 22.49458 | 55.99789 | 34793 ft | 461 kts | 349° |
| 2026-05-05 20:16 | 22.55772 | 55.98857 | 34789 ft | 461 kts | 349° |
| 2026-05-05 20:16 | 22.62142 | 55.97914 | 34790 ft | 462 kts | 349° |
| 2026-05-05 20:17 | 22.68519 | 55.96970 | 34790 ft | 462 kts | 349° |
| 2026-05-05 20:17 | 22.74892 | 55.96026 | 34789 ft | 462 kts | 349° |
| 2026-05-05 20:17 | 22.78077 | 55.95553 | 34535 ft | 463 kts | 349° |
| 2026-05-05 20:18 | 22.81267 | 55.95080 | 34055 ft | 461 kts | 349° |
| 2026-05-05 20:18 | 22.84422 | 55.94611 | 33585 ft | 456 kts | 349° |
| 2026-05-05 20:18 | 22.86505 | 55.94299 | 33246 ft | 453 kts | 349° |
| 2026-05-05 20:18 | 22.89626 | 55.93832 | 32754 ft | 450 kts | 349° |
| 2026-05-05 20:19 | 22.92726 | 55.93368 | 32265 ft | 448 kts | 349° |
| 2026-05-05 20:19 | 22.95804 | 55.92906 | 31779 ft | 445 kts | 349° |
| 2026-05-05 20:19 | 22.98861 | 55.92448 | 31311 ft | 442 kts | 349° |
| 2026-05-05 20:19 | 23.01892 | 55.91994 | 30843 ft | 439 kts | 349° |
| 2026-05-05 20:20 | 23.05912 | 55.91390 | 30239 ft | 440 kts | 349° |
| 2026-05-05 20:20 | 23.07967 | 55.91080 | 29952 ft | 442 kts | 349° |
| 2026-05-05 20:20 | 23.11025 | 55.90619 | 29442 ft | 445 kts | 349° |
| 2026-05-05 20:20 | 23.14121 | 55.90151 | 28929 ft | 453 kts | 349° |
| 2026-05-05 20:21 | 23.17217 | 55.89683 | 28424 ft | 454 kts | 350° |
| 2026-05-05 20:21 | 23.20359 | 55.89210 | 27922 ft | 457 kts | 350° |
| 2026-05-05 20:21 | 23.23518 | 55.88733 | 27424 ft | 459 kts | 350° |
| 2026-05-05 20:21 | 23.26675 | 55.88257 | 26930 ft | 455 kts | 350° |
| 2026-05-05 20:22 | 23.29795 | 55.87787 | 26453 ft | 451 kts | 350° |
| 2026-05-05 20:22 | 23.32884 | 55.87321 | 25975 ft | 446 kts | 350° |
| 2026-05-05 20:22 | 23.35948 | 55.86858 | 25517 ft | 442 kts | 350° |
| 2026-05-05 20:22 | 23.38987 | 55.86398 | 25052 ft | 439 kts | 350° |
| 2026-05-05 20:23 | 23.42011 | 55.85940 | 24602 ft | 436 kts | 351° |
| 2026-05-05 20:23 | 23.45000 | 55.85487 | 24150 ft | 433 kts | 351° |
| 2026-05-05 20:23 | 23.47983 | 55.85035 | 23725 ft | 431 kts | 351° |
| 2026-05-05 20:23 | 23.50943 | 55.84570 | 23272 ft | 428 kts | 348° |
| 2026-05-05 20:24 | 23.53776 | 55.83651 | 22742 ft | 424 kts | 335° |
| 2026-05-05 20:24 | 23.56352 | 55.82119 | 22247 ft | 420 kts | 325° |
| 2026-05-05 20:24 | 23.58596 | 55.80101 | 21743 ft | 417 kts | 315° |
| 2026-05-05 20:24 | 23.60639 | 55.77874 | 21254 ft | 415 kts | 314° |
| 2026-05-05 20:25 | 23.62665 | 55.75635 | 20764 ft | 412 kts | 314° |
| 2026-05-05 20:25 | 23.64671 | 55.73425 | 20286 ft | 410 kts | 314° |
| 2026-05-05 20:25 | 23.66652 | 55.71259 | 19820 ft | 407 kts | 315° |
| 2026-05-05 20:25 | 23.68676 | 55.69061 | 19356 ft | 404 kts | 315° |
| 2026-05-05 20:26 | 23.70642 | 55.66933 | 18902 ft | 401 kts | 315° |
| 2026-05-05 20:26 | 23.72619 | 55.64798 | 18451 ft | 399 kts | 315° |
| 2026-05-05 20:26 | 23.74588 | 55.62671 | 17993 ft | 396 kts | 315° |
| 2026-05-05 20:26 | 23.76539 | 55.60563 | 17489 ft | 394 kts | 315° |
| 2026-05-05 20:27 | 23.78482 | 55.58462 | 16987 ft | 391 kts | 315° |
| 2026-05-05 20:27 | 23.80410 | 55.56376 | 16490 ft | 389 kts | 315° |
| 2026-05-05 20:27 | 23.82294 | 55.54268 | 16002 ft | 387 kts | 310° |
| 2026-05-05 20:27 | 23.83836 | 55.51873 | 15522 ft | 384 kts | 299° |
| 2026-05-05 20:28 | 23.84966 | 55.49242 | 15051 ft | 382 kts | 294° |
| 2026-05-05 20:28 | 23.86017 | 55.46587 | 14585 ft | 379 kts | 294° |
| 2026-05-05 20:28 | 23.87077 | 55.43957 | 14131 ft | 378 kts | 294° |
| 2026-05-05 20:28 | 23.88145 | 55.41341 | 13683 ft | 377 kts | 294° |
| 2026-05-05 20:29 | 23.89220 | 55.38728 | 13186 ft | 376 kts | 294° |
| 2026-05-05 20:29 | 23.90275 | 55.36174 | 12687 ft | 372 kts | 294° |
| 2026-05-05 20:29 | 23.91348 | 55.33574 | 12256 ft | 367 kts | 294° |
| 2026-05-05 20:29 | 23.92368 | 55.31104 | 12020 ft | 358 kts | 294° |
| 2026-05-05 20:30 | 23.93444 | 55.28687 | 11771 ft | 349 kts | 296° |
| 2026-05-05 20:30 | 23.94556 | 55.26353 | 11512 ft | 342 kts | 296° |
| 2026-05-05 20:30 | 23.95653 | 55.24076 | 11271 ft | 335 kts | 296° |
| 2026-05-05 20:30 | 23.96727 | 55.21838 | 11030 ft | 329 kts | 296° |
| 2026-05-05 20:31 | 23.97777 | 55.19631 | 10794 ft | 323 kts | 296° |
| 2026-05-05 20:31 | 23.98798 | 55.17474 | 10648 ft | 315 kts | 296° |
| 2026-05-05 20:31 | 23.99786 | 55.15383 | 10517 ft | 303 kts | 296° |
| 2026-05-05 20:31 | 24.00741 | 55.13356 | 10384 ft | 295 kts | 296° |
| 2026-05-05 20:32 | 24.01669 | 55.11385 | 10267 ft | 288 kts | 296° |
| 2026-05-05 20:32 | 24.02577 | 55.09456 | 10087 ft | 283 kts | 296° |
| 2026-05-05 20:32 | 24.03462 | 55.07571 | 9783 ft | 282 kts | 295° |
| 2026-05-05 20:32 | 24.04366 | 55.05646 | 9288 ft | 286 kts | 295° |
| 2026-05-05 20:33 | 24.05279 | 55.03707 | 8808 ft | 287 kts | 296° |
| 2026-05-05 20:33 | 24.06364 | 55.01875 | 8318 ft | 288 kts | 307° |
| 2026-05-05 20:33 | 24.07612 | 55.00164 | 7852 ft | 287 kts | 309° |
| 2026-05-05 20:33 | 24.09077 | 54.98697 | 7347 ft | 287 kts | 332° |
| 2026-05-05 20:34 | 24.10971 | 54.98109 | 6897 ft | 284 kts | 359° |
| 2026-05-05 20:34 | 24.12892 | 54.98443 | 6505 ft | 278 kts | 22° |
| 2026-05-05 20:34 | 24.14541 | 54.99474 | 6179 ft | 271 kts | 34° |
| 2026-05-05 20:34 | 24.16273 | 55.00115 | 6019 ft | 259 kts | 0° |
| 2026-05-05 20:35 | 24.17977 | 54.99714 | 5999 ft | 246 kts | 335° |
| 2026-05-05 20:35 | 24.19363 | 54.98703 | 5937 ft | 236 kts | 315° |
| 2026-05-05 20:35 | 24.20440 | 54.97351 | 5687 ft | 235 kts | 307° |
| 2026-05-05 20:35 | 24.21426 | 54.95933 | 5453 ft | 234 kts | 307° |
| 2026-05-05 20:36 | 24.22408 | 54.94518 | 5222 ft | 232 kts | 308° |
| 2026-05-05 20:36 | 24.23390 | 54.93120 | 4992 ft | 231 kts | 308° |
| 2026-05-05 20:36 | 24.24375 | 54.91730 | 4763 ft | 230 kts | 309° |
| 2026-05-05 20:36 | 24.25353 | 54.90351 | 4535 ft | 229 kts | 309° |
| 2026-05-05 20:37 | 24.26333 | 54.88975 | 4289 ft | 228 kts | 309° |
| 2026-05-05 20:37 | 24.27308 | 54.87608 | 4055 ft | 228 kts | 309° |
| 2026-05-05 20:37 | 24.28271 | 54.86259 | 3810 ft | 227 kts | 309° |
| 2026-05-05 20:37 | 24.29241 | 54.84898 | 3574 ft | 226 kts | 310° |
| 2026-05-05 20:38 | 24.30206 | 54.83543 | 3343 ft | 226 kts | 310° |
| 2026-05-05 20:38 | 24.31188 | 54.82165 | 3140 ft | 233 kts | 310° |
| 2026-05-05 20:38 | 24.32185 | 54.80764 | 3035 ft | 229 kts | 310° |
| 2026-05-05 20:38 | 24.33148 | 54.79410 | 2980 ft | 220 kts | 310° |
| 2026-05-05 20:39 | 24.34058 | 54.78129 | 2965 ft | 206 kts | 310° |
| 2026-05-05 20:39 | 24.34944 | 54.76883 | 2638 ft | 210 kts | 310° |
| 2026-05-05 20:39 | 24.35824 | 54.75622 | 2368 ft | 203 kts | 310° |
| 2026-05-05 20:39 | 24.36643 | 54.74415 | 2164 ft | 192 kts | 309° |
| 2026-05-05 20:40 | 24.37438 | 54.73292 | 1875 ft | 186 kts | 311° |
| 2026-05-05 20:40 | 24.38200 | 54.72187 | 1579 ft | 177 kts | 311° |
| 2026-05-05 20:40 | 24.38924 | 54.71158 | 1300 ft | 164 kts | 313° |
| 2026-05-05 20:40 | 24.39639 | 54.70209 | 992 ft | 157 kts | 312° |
| 2026-05-05 20:41 | 24.40317 | 54.69301 | 708 ft | 151 kts | 311° |
| 2026-05-05 20:41 | 24.40969 | 54.68410 | 509 ft | 152 kts | 309° |
| 2026-05-05 20:41 | 24.41622 | 54.67473 | 262 ft | 156 kts | 310° |
| 2026-05-05 20:41 | 24.42283 | 54.66549 | 97 ft | 147 kts | 310° |
| 2026-05-05 20:42 | 24.42849 | 54.65754 | 90 ft | 108 kts | 308° |
| 2026-05-05 20:42 | 24.43198 | 54.65274 | 92 ft | 61 kts | 308° |
| 2026-05-05 20:42 | 24.43373 | 54.65026 | 94 ft | 29 kts | 308° |
| 2026-05-05 20:42 | 24.43491 | 54.64860 | 88 ft | 26 kts | 307° |
| 2026-05-05 20:43 | 24.43597 | 54.64709 | 88 ft | 18 kts | 308° |
| 2026-05-05 20:43 | 24.43642 | 54.64649 | 88 ft | 9 kts | 322° |
| 2026-05-05 20:43 | 24.43704 | 54.64657 | 89 ft | 10 kts | 35° |
| 2026-05-05 20:43 | 24.43755 | 54.64697 | 91 ft | 8 kts | 35° |
| 2026-05-05 20:44 | 24.43802 | 54.64735 | 88 ft | 10 kts | 36° |
| 2026-05-05 20:44 | 24.43868 | 54.64770 | 91 ft | 12 kts | 354° |
| 2026-05-05 20:44 | 24.43930 | 54.64708 | 87 ft | 14 kts | 308° |
| 2026-05-05 20:44 | 24.43994 | 54.64618 | 89 ft | 16 kts | 308° |
| 2026-05-05 20:45 | 24.44146 | 54.64399 | 90 ft | 17 kts | 311° |
| 2026-05-05 20:45 | 24.44221 | 54.64404 | 90 ft | 11 kts | 32° |
| 2026-05-05 20:45 | 24.44286 | 54.64392 | 88 ft | 11 kts | 313° |
| 2026-05-05 20:46 | 24.44353 | 54.64345 | 88 ft | 12 kts | 351° |
| 2026-05-05 20:46 | 24.44399 | 54.64373 | 87 ft | 6 kts | 53° |
| 2026-05-05 20:46 | 24.44423 | 54.64409 | 85 ft | 4 kts | 53° |
| 2026-05-05 20:46 | 24.44426 | 54.64412 | 85 ft | 0 kts | 53° |